Time;durP1;ratioP1;P1;durP2;ratioP2;P2;SDS_P1;SDS_P2;PMS_P1;PMS_P2;Temp;Humidity;BMP_temperature;BMP_pressure;BME280_temperature;BME280_humidity;BME280_pressure;Samples;Min_cycle;Max_cycle;Signal;HPM_P1;HPM_P2
2021/03/30 00:02:01;;;;;;;4.90;2.70;;;;;;;7.70;69.39;101993.88;5092326;28;20063;-67
2021/03/30 00:04:45;;;;;;;4.05;2.30;;;;;;;7.65;69.45;101998.56;5092282;28;20083;-68
2021/03/30 00:07:29;;;;;;;6.38;2.72;;;;;;;7.56;69.84;101995.59;5092462;28;20093;-67
2021/03/30 00:10:16;;;;;;;5.93;2.33;;;;;;;7.49;68.94;101991.53;5092745;28;20047;-67
2021/03/30 00:13:00;;;;;;;4.50;2.45;;;;;;;7.43;67.75;101994.53;5093350;28;20047;-67
2021/03/30 00:15:44;;;;;;;8.40;2.65;;;;;;;7.41;68.45;101991.13;5092450;28;20063;-67
2021/03/30 00:18:28;;;;;;;6.10;2.58;;;;;;;7.35;68.77;101985.25;5092156;28;20101;-68
2021/03/30 00:21:12;;;;;;;6.70;2.92;;;;;;;7.26;67.86;101981.31;5092193;28;20062;-67
2021/03/30 00:23:56;;;;;;;;;;;;;;;7.20;67.37;101980.78;5092798;28;20051;-65
2021/03/30 00:26:40;;;;;;;3.10;2.47;;;;;;;7.13;67.57;101980.25;5093007;28;20326;-67
2021/03/30 00:29:24;;;;;;;5.85;3.20;;;;;;;7.09;67.96;101983.16;5093295;28;20097;-67
2021/03/30 00:32:11;;;;;;;5.32;3.00;;;;;;;7.00;68.34;101989.81;5093397;28;20454;-67
2021/03/30 00:34:55;;;;;;;6.82;3.22;;;;;;;6.94;67.98;101979.50;5092018;28;20127;-67
2021/03/30 00:37:39;;;;;;;8.48;3.13;;;;;;;6.89;69.47;101986.84;5093199;28;20116;-68
2021/03/30 00:40:23;;;;;;;6.03;3.08;;;;;;;6.81;70.15;101978.44;5093053;28;20054;-64
2021/03/30 00:43:07;;;;;;;7.53;3.38;;;;;;;6.76;70.02;101975.16;5096908;28;20054;-66
2021/03/30 00:45:51;;;;;;;6.97;2.83;;;;;;;6.75;70.19;101977.91;5096814;28;20108;-68
2021/03/30 00:48:35;;;;;;;6.97;3.03;;;;;;;6.73;70.84;101974.44;5096728;28;20468;-68
2021/03/30 00:51:20;;;;;;;4.32;2.75;;;;;;;6.67;70.54;101980.09;5095850;28;20408;-67
2021/03/30 00:54:05;;;;;;;4.22;2.58;;;;;;;6.57;70.32;101973.53;5096698;28;20097;-67
2021/03/30 00:56:48;;;;;;;9.07;3.03;;;;;;;6.46;70.13;101971.41;5096527;28;20462;-67
2021/03/30 00:59:33;;;;;;;6.07;2.80;;;;;;;6.42;70.93;101974.28;5096724;28;20050;-67
2021/03/30 01:02:17;;;;;;;6.10;3.05;;;;;;;6.42;71.51;101964.56;5095511;28;20042;-67
2021/03/30 01:05:01;;;;;;;5.97;2.95;;;;;;;6.42;71.95;101969.00;5095622;28;20097;-68
2021/03/30 01:08:10;;;;;;;5.18;3.38;;;;;;;6.41;72.59;101973.47;5095614;28;20051;-67
2021/03/30 01:11:12;;;;;;;7.05;3.47;;;;;;;6.40;72.21;101966.44;5096570;28;20058;-67
2021/03/30 01:14:08;;;;;;;6.22;2.95;;;;;;;6.39;71.86;101970.03;5095509;28;20047;-67
2021/03/30 01:16:57;;;;;;;4.32;2.90;;;;;;;6.41;69.35;101970.81;5096388;28;20046;-67
2021/03/30 01:20:18;;;;;;;6.22;2.83;;;;;;;6.37;69.77;101965.75;5096347;28;20051;-65
2021/03/30 01:23:13;;;;;;;9.02;3.13;;;;;;;6.27;71.08;101965.31;5095994;28;20051;-66
2021/03/30 01:26:09;;;;;;;7.65;3.00;;;;;;;6.19;71.30;101966.66;5080642;28;20527;-67
2021/03/30 01:29:12;;;;;;;10.00;3.63;;;;;;;6.10;69.96;101972.38;5095948;28;20046;-64
2021/03/30 01:32:00;;;;;;;5.75;3.20;;;;;;;5.90;70.09;101970.72;5095868;28;20567;-65
2021/03/30 01:34:45;;;;;;;5.72;3.53;;;;;;;5.89;70.18;101969.00;5095159;28;20055;-64
2021/03/30 01:37:30;;;;;;;6.63;3.80;;;;;;;5.84;72.20;101975.47;5095036;28;20049;-66
2021/03/30 01:40:19;;;;;;;4.55;2.88;;;;;;;5.79;73.08;101970.38;5080481;28;20113;-68
2021/03/30 01:43:05;;;;;;;6.28;2.80;;;;;;;5.82;73.48;101972.88;5080135;28;20046;-64
2021/03/30 01:45:54;;;;;;;4.03;2.88;;;;;;;5.82;73.08;101978.16;5080677;28;20101;-65
2021/03/30 01:48:39;;;;;;;5.00;2.80;;;;;;;5.78;72.81;101973.94;5094806;28;20454;-67
2021/03/30 01:51:23;;;;;;;8.25;3.88;;;;;;;5.77;72.52;101980.13;5095227;28;20039;-64
2021/03/30 01:54:07;;;;;;;9.05;3.42;;;;;;;5.76;72.80;101974.91;5080226;28;20093;-67
2021/03/30 01:56:52;;;;;;;;;;;;;;;5.72;72.79;101982.16;5095093;28;20074;-67
2021/03/30 01:59:39;;;;;;;5.85;2.85;;;;;;;5.66;74.78;101974.47;5094548;28;19966;-67
2021/03/30 02:02:23;;;;;;;7.53;3.50;;;;;;;5.63;75.86;101977.28;5094185;28;20106;-68
2021/03/30 02:05:08;;;;;;;6.80;3.28;;;;;;;5.65;76.23;101980.72;5066248;28;20050;-68
2021/03/30 02:07:58;;;;;;;6.90;3.20;;;;;;;5.64;75.69;101981.63;5094200;28;20050;-65
2021/03/30 02:10:52;;;;;;;7.18;3.28;;;;;;;5.61;75.10;101979.16;5094306;28;20462;-66
2021/03/30 02:16:22;;;;;;;8.63;4.63;;;;;;;5.52;74.27;101970.81;5095273;28;20256;-68
2021/03/30 02:19:12;;;;;;;7.25;3.55;;;;;;;5.49;74.68;101979.72;5094265;28;20495;-67
2021/03/30 02:22:04;;;;;;;4.72;3.53;;;;;;;5.46;74.58;101974.56;5079953;28;20059;-66
2021/03/30 02:24:48;;;;;;;6.20;3.60;;;;;;;5.44;74.99;101975.59;5094098;28;20047;-67
2021/03/30 02:27:36;;;;;;;5.22;3.47;;;;;;;5.43;75.44;101973.88;5094104;28;20051;-67
2021/03/30 02:30:22;;;;;;;5.40;3.35;;;;;;;5.41;74.96;101971.28;5093750;28;20131;-67
2021/03/30 02:33:08;;;;;;;7.07;3.65;;;;;;;5.40;74.42;101972.22;5093843;28;20128;-64
2021/03/30 02:35:55;;;;;;;6.57;2.95;;;;;;;5.33;73.99;101967.28;5079803;28;20093;-65
2021/03/30 02:38:39;;;;;;;6.43;3.22;;;;;;;5.31;74.71;101972.63;5093823;28;20055;-65
2021/03/30 02:41:23;;;;;;;7.97;3.17;;;;;;;5.26;74.72;101977.28;5093268;28;20043;-68
2021/03/30 02:44:08;;;;;;;4.82;2.97;;;;;;;5.20;74.89;101977.56;5093765;28;20408;-67
2021/03/30 02:46:55;;;;;;;7.13;3.65;;;;;;;5.10;74.93;101970.97;5093898;28;20101;-68
2021/03/30 02:49:40;;;;;;;7.32;3.58;;;;;;;5.03;75.50;101974.78;5093866;28;20059;-65
2021/03/30 02:52:24;;;;;;;6.10;3.70;;;;;;;4.99;77.36;101980.28;5093257;28;20054;-68
2021/03/30 02:55:09;;;;;;;7.75;3.65;;;;;;;4.97;76.67;101988.31;5093487;28;20051;-67
2021/03/30 02:57:53;;;;;;;7.85;3.22;;;;;;;4.94;76.14;101980.47;5093431;28;20047;-67
2021/03/30 03:00:39;;;;;;;7.07;3.15;;;;;;;4.90;76.22;101978.03;5093090;28;20054;-66
2021/03/30 03:03:23;;;;;;;8.27;3.95;;;;;;;4.87;75.63;101977.34;5092977;28;20058;-66
2021/03/30 03:06:08;;;;;;;7.82;3.97;;;;;;;4.76;75.27;101987.53;5093313;28;20101;-67
2021/03/30 03:08:52;;;;;;;7.43;3.40;;;;;;;4.67;75.88;101986.13;5093504;28;20046;-67
2021/03/30 03:11:45;;;;;;;8.50;3.65;;;;;;;4.65;76.64;101976.53;5092921;28;20066;-67
2021/03/30 03:14:29;;;;;;;6.55;3.30;;;;;;;4.63;76.95;101981.03;5093941;28;20511;-65
2021/03/30 03:17:13;;;;;;;6.78;3.30;;;;;;;4.60;77.14;101986.44;5093878;28;20101;-67
2021/03/30 03:19:57;;;;;;;7.78;3.45;;;;;;;4.57;77.16;101991.88;5092928;28;20046;-67
2021/03/30 03:22:41;;;;;;;5.35;3.40;;;;;;;4.56;77.34;101998.09;5093838;28;20047;-67
2021/03/30 03:25:25;;;;;;;5.53;3.40;;;;;;;4.55;77.63;101991.94;5092854;28;20054;-66
2021/03/30 03:28:09;;;;;;;9.32;3.30;;;;;;;4.49;78.18;101986.88;5092740;28;20100;-67
2021/03/30 03:30:53;;;;;;;7.07;3.25;;;;;;;4.45;78.30;101984.47;5093570;28;20059;-68
2021/03/30 03:33:37;;;;;;;8.75;3.50;;;;;;;4.39;78.73;101990.00;5078941;28;20067;-67
2021/03/30 03:36:21;;;;;;;11.45;4.13;;;;;;;4.36;78.36;101990.13;5093035;28;20051;-66
2021/03/30 03:39:07;;;;;;;6.18;3.80;;;;;;;4.36;78.91;102000.69;5078465;28;20059;-67
2021/03/30 03:41:51;;;;;;;6.70;3.92;;;;;;;4.33;79.39;101993.75;5093451;28;20118;-67
2021/03/30 03:44:36;;;;;;;8.27;4.20;;;;;;;4.28;79.28;101994.88;5093655;28;20093;-67
2021/03/30 03:47:23;;;;;;;10.52;4.20;;;;;;;4.28;79.59;101997.50;5092861;28;20381;-66
2021/03/30 03:50:07;;;;;;;5.70;3.30;;;;;;;4.26;80.12;101989.63;5092568;28;20093;-66
2021/03/30 03:52:54;;;;;;;5.80;3.75;;;;;;;4.20;80.10;101999.59;5078307;28;20573;-66
2021/03/30 03:55:49;;;;;;;8.07;3.92;;;;;;;4.18;80.15;101994.38;5092627;28;20051;-67
2021/03/30 03:58:37;;;;;;;5.57;3.70;;;;;;;4.08;81.11;102000.94;5077973;28;20058;-66
2021/03/30 04:01:29;;;;;;;7.85;3.83;;;;;;;4.05;81.61;101990.50;5092311;28;20424;-67
2021/03/30 04:04:31;;;;;;;10.10;4.50;;;;;;;4.03;81.58;101994.13;5092459;28;20059;-65
2021/03/30 04:07:27;;;;;;;6.85;4.10;;;;;;;4.02;81.78;101995.03;5092221;28;20523;-67
2021/03/30 04:10:11;;;;;;;6.90;4.45;;;;;;;4.01;81.66;101990.69;5092373;28;20047;-66
2021/03/30 04:12:55;;;;;;;6.63;3.50;;;;;;;3.96;82.01;101990.03;5092368;28;20078;-66
2021/03/30 04:15:39;;;;;;;6.40;4.18;;;;;;;3.86;82.11;101991.31;5093816;28;20514;-67
2021/03/30 04:18:23;;;;;;;;;;;;;;;3.76;82.43;101992.59;5096741;28;20098;-66
2021/03/30 04:21:11;;;;;;;9.97;5.07;;;;;;;3.73;82.99;101997.97;5081796;28;19939;-67
2021/03/30 04:23:57;;;;;;;8.55;4.57;;;;;;;3.73;83.88;102003.25;5097431;28;20086;-68
2021/03/30 04:26:41;;;;;;;6.43;3.83;;;;;;;3.76;84.14;101992.59;5097375;28;20404;-68
2021/03/30 04:29:25;;;;;;;6.72;4.00;;;;;;;3.77;84.26;101995.16;5096384;28;20101;-68
2021/03/30 04:32:09;;;;;;;7.25;4.00;;;;;;;3.77;84.16;101999.59;5095905;28;20075;-67
2021/03/30 04:34:53;;;;;;;10.32;4.55;;;;;;;3.78;84.25;101996.03;5097170;28;20047;-67
2021/03/30 04:37:37;;;;;;;7.35;3.72;;;;;;;3.73;83.83;101997.97;5096230;28;20136;-67
2021/03/30 04:40:23;;;;;;;6.53;4.32;;;;;;;3.69;83.90;101997.25;5096032;28;20533;-67
2021/03/30 04:43:07;;;;;;;6.75;4.00;;;;;;;3.71;84.43;101994.53;5095665;28;20086;-66
2021/03/30 04:45:51;;;;;;;6.80;3.63;;;;;;;3.72;83.93;102006.81;5097275;28;20047;-66
2021/03/30 04:48:36;;;;;;;9.18;3.83;;;;;;;3.71;84.11;102005.09;5096959;28;20078;-66
2021/03/30 04:51:23;;;;;;;7.53;4.20;;;;;;;3.69;84.06;102006.94;5096515;28;20093;-65
2021/03/30 04:54:07;;;;;;;6.78;4.28;;;;;;;3.66;83.92;102004.44;5095611;28;20181;-67
2021/03/30 04:56:51;;;;;;;12.02;4.60;;;;;;;3.58;84.05;102006.50;5097026;28;20062;-67
2021/03/30 04:59:35;;;;;;;5.40;3.55;;;;;;;3.52;84.38;102010.22;5081185;28;20135;-66
2021/03/30 05:02:19;;;;;;;7.43;4.38;;;;;;;3.48;86.00;102007.75;5096641;28;20110;-67
2021/03/30 05:05:03;;;;;;;8.68;3.85;;;;;;;3.49;86.65;102009.47;5096593;28;20077;-66
2021/03/30 05:07:47;;;;;;;6.18;3.95;;;;;;;3.50;87.25;102008.56;5095410;28;20536;-66
2021/03/30 05:10:32;;;;;;;7.22;4.10;;;;;;;3.51;87.54;102012.91;5095548;28;20100;-66
2021/03/30 05:13:16;;;;;;;10.77;4.80;;;;;;;3.52;87.73;102006.72;5095536;28;20424;-66
2021/03/30 05:15:59;;;;;;;11.07;5.13;;;;;;;3.56;86.42;102013.59;5095257;28;20484;-65
2021/03/30 05:18:44;;;;;;;6.90;4.75;;;;;;;3.56;86.05;102018.88;5096435;28;20408;-66
2021/03/30 05:21:28;;;;;;;8.60;4.88;;;;;;;3.53;85.92;102026.91;5095212;28;20051;-67
2021/03/30 05:24:12;;;;;;;10.23;5.15;;;;;;;3.52;86.53;102025.16;5095032;28;20047;-67
2021/03/30 05:26:56;;;;;;;10.20;5.22;;;;;;;3.53;86.63;102021.66;5095049;28;20118;-67
2021/03/30 05:29:46;;;;;;;6.68;4.20;;;;;;;3.55;86.95;102020.66;5095855;28;20113;-67
2021/03/30 05:32:29;;;;;;;9.77;4.82;;;;;;;3.57;86.89;102017.97;5095621;28;20039;-65
2021/03/30 05:35:14;;;;;;;9.05;4.97;;;;;;;3.60;86.54;102021.34;5096006;28;20090;-67
2021/03/30 05:37:58;;;;;;;9.60;4.80;;;;;;;3.63;86.47;102021.22;5094798;28;20130;-66
2021/03/30 05:40:42;;;;;;;11.55;4.97;;;;;;;3.66;86.03;102026.38;5094907;28;20047;-66
2021/03/30 05:43:29;;;;;;;11.85;5.03;;;;;;;3.66;86.23;102036.06;5094984;28;20520;-67
2021/03/30 05:46:13;;;;;;;7.30;4.70;;;;;;;3.74;86.05;102031.38;5094838;28;20051;-66
2021/03/30 05:48:57;;;;;;;7.65;4.85;;;;;;;3.81;85.87;102032.84;5094843;28;20042;-66
2021/03/30 05:51:41;;;;;;;10.50;5.38;;;;;;;3.88;85.72;102040.44;5080354;28;20074;-66
2021/03/30 05:54:27;;;;;;;9.07;4.63;;;;;;;3.92;85.26;102036.78;5094606;28;20078;-66
2021/03/30 05:57:12;;;;;;;7.88;5.00;;;;;;;4.02;85.54;102042.56;5080249;28;20082;-66
2021/03/30 05:59:58;;;;;;;13.48;4.68;;;;;;;4.10;85.13;102036.06;5094398;28;20055;-66
2021/03/30 06:02:45;;;;;;;8.88;4.38;;;;;;;4.19;85.13;102046.25;5080150;28;20055;-66
2021/03/30 06:05:29;;;;;;;7.32;4.55;;;;;;;4.26;84.78;102042.44;5080310;28;20114;-66
2021/03/30 06:08:13;;;;;;;12.55;5.00;;;;;;;4.34;84.39;102047.41;5094309;28;20055;-66
2021/03/30 06:11:07;;;;;;;8.50;4.82;;;;;;;4.39;84.38;102042.81;5094554;28;20043;-66
2021/03/30 06:13:51;;;;;;;10.30;5.80;;;;;;;4.46;84.35;102045.13;5094406;28;20047;-65
2021/03/30 06:16:39;;;;;;;7.90;4.85;;;;;;;4.53;84.26;102048.38;5095288;28;20086;-65
2021/03/30 06:19:23;;;;;;;7.47;4.72;;;;;;;4.61;85.25;102043.63;5095077;28;20523;-65
2021/03/30 06:22:07;;;;;;;16.75;5.63;;;;;;;4.74;84.88;102050.13;5093967;28;20182;-67
2021/03/30 06:24:52;;;;;;;8.15;5.25;;;;;;;4.86;84.90;102042.53;5095084;28;20047;-66
2021/03/30 06:27:36;;;;;;;17.90;7.75;;;;;;;5.02;84.53;102046.25;5094025;28;20570;-67
2021/03/30 06:30:28;;;;;;;16.95;6.72;;;;;;;5.25;84.37;102044.28;5093737;28;20598;-67
2021/03/30 06:33:12;;;;;;;21.17;6.95;;;;;;;5.45;84.28;102040.78;5093879;28;20193;-67
2021/03/30 06:36:15;;;;;;;10.55;7.10;;;;;;;5.65;83.55;102049.50;5093610;28;20063;-67
2021/03/30 06:39:10;;;;;;;11.88;6.72;;;;;;;5.83;82.95;102051.34;5094184;28;20539;-66
2021/03/30 06:41:59;;;;;;;12.50;6.82;;;;;;;6.03;81.56;102047.75;5093286;28;20038;-67
2021/03/30 06:44:43;;;;;;;13.57;6.07;;;;;;;6.19;80.04;102052.25;5080328;28;20066;-67
2021/03/30 06:47:27;;;;;;;11.75;7.18;;;;;;;6.34;79.22;102046.22;5093597;28;20051;-66
2021/03/30 06:50:33;;;;;;;8.63;5.90;;;;;;;6.53;77.58;102051.44;5093648;28;20043;-67
2021/03/30 06:53:18;;;;;;;11.90;5.97;;;;;;;6.68;77.26;102050.72;5079173;28;20078;-66
2021/03/30 06:56:02;;;;;;;10.30;5.70;;;;;;;6.83;76.41;102039.31;5094482;28;20066;-66
2021/03/30 06:59:00;;;;;;;12.82;6.60;;;;;;;7.00;76.30;102053.44;5093494;28;20043;-67
2021/03/30 07:01:50;;;;;;;10.02;5.75;;;;;;;7.16;75.59;102048.22;5092965;28;20047;-66
2021/03/30 07:04:52;;;;;;;11.13;5.72;;;;;;;7.32;74.58;102049.97;5093347;28;20042;-67
2021/03/30 07:07:38;;;;;;;9.02;5.72;;;;;;;7.48;74.20;102044.72;5093245;28;20101;-67
2021/03/30 07:10:23;;;;;;;9.80;6.20;;;;;;;7.61;74.09;102057.22;5093398;28;20086;-67
2021/03/30 07:13:09;;;;;;;7.90;5.18;;;;;;;7.78;72.57;102060.69;5093088;28;20047;-66
2021/03/30 07:16:05;;;;;;;10.52;5.38;;;;;;;8.00;70.07;102049.75;5092887;28;20117;-66
2021/03/30 07:18:50;;;;;;;8.48;4.88;;;;;;;8.17;68.60;102050.50;5093061;28;20180;-66
2021/03/30 07:21:53;;;;;;;10.88;4.95;;;;;;;8.32;67.68;102044.38;5093658;28;20047;-66
2021/03/30 07:25:01;;;;;;;8.85;5.10;;;;;;;8.48;66.94;102057.66;5093269;28;20062;-67
2021/03/30 07:27:53;;;;;;;11.13;4.53;;;;;;;8.58;66.41;102050.84;5093118;28;20046;-66
2021/03/30 07:30:38;;;;;;;7.32;4.47;;;;;;;8.71;64.75;102049.19;5092818;28;20039;-66
2021/03/30 07:33:46;;;;;;;12.88;4.78;;;;;;;8.92;62.80;102053.25;5093159;28;20097;-66
2021/03/30 07:36:34;;;;;;;9.70;4.70;;;;;;;9.04;62.96;102052.50;5078744;28;20085;-66
2021/03/30 07:39:19;;;;;;;12.95;5.18;;;;;;;9.18;62.82;102055.22;5078791;28;20553;-66
2021/03/30 07:42:03;;;;;;;10.10;4.90;;;;;;;9.33;61.68;102054.28;5092531;28;20097;-66
2021/03/30 07:44:49;;;;;;;11.68;4.95;;;;;;;9.41;61.59;102054.66;5092659;28;20082;-67
2021/03/30 07:47:34;;;;;;;7.03;4.10;;;;;;;9.48;61.63;102053.34;5093086;28;20112;-66
2021/03/30 07:50:23;;;;;;;6.72;5.00;;;;;;;9.59;60.90;102054.38;5091785;28;20047;-66
2021/03/30 07:53:07;;;;;;;6.70;4.72;;;;;;;9.69;60.03;102058.19;5092515;28;20093;-66
2021/03/30 07:55:51;;;;;;;11.05;4.25;;;;;;;9.79;59.26;102056.66;5092652;28;20047;-64
2021/03/30 07:58:44;;;;;;;5.63;3.92;;;;;;;9.91;58.44;102060.38;5093390;28;20443;-64
2021/03/30 08:01:31;;;;;;;8.82;4.10;;;;;;;10.06;56.82;102052.28;5078135;28;20043;-64
2021/03/30 08:04:24;;;;;;;11.52;4.90;;;;;;;10.23;57.03;102059.19;5093222;28;20462;-64
2021/03/30 08:07:08;;;;;;;10.60;5.20;;;;;;;10.37;55.65;102050.22;5092376;28;20042;-64
2021/03/30 08:10:20;;;;;;;13.90;4.47;;;;;;;10.51;54.51;102047.50;5092506;28;20050;-64
2021/03/30 08:13:35;;;;;;;6.97;4.57;;;;;;;10.65;54.10;102047.44;5092346;28;20131;-67
2021/03/30 08:16:20;;;;;;;11.48;4.63;;;;;;;10.76;54.30;102047.56;5092451;28;20106;-64
2021/03/30 08:19:10;;;;;;;10.70;4.95;;;;;;;10.88;53.28;102044.06;5078140;28;20462;-65
2021/03/30 08:22:03;;;;;;;12.02;4.72;;;;;;;11.04;53.68;102050.09;5092284;28;20051;-66
2021/03/30 08:24:47;;;;;;;9.43;4.75;;;;;;;11.14;53.79;102040.50;5077938;28;20063;-66
2021/03/30 08:27:31;;;;;;;8.15;4.00;;;;;;;11.34;52.07;102047.97;5093097;28;20458;-65
2021/03/30 08:30:24;;;;;;;10.35;4.15;;;;;;;11.49;51.45;102036.22;5092083;28;20097;-67
2021/03/30 08:33:08;;;;;;;11.82;4.18;;;;;;;11.69;51.53;102049.06;5092946;28;20046;-65
2021/03/30 08:36:16;;;;;;;11.15;4.93;;;;;;;11.86;51.59;102038.03;5092293;28;20511;-65
2021/03/30 08:39:07;;;;;;;11.40;5.13;;;;;;;11.97;49.96;102032.75;5077698;28;20184;-65
2021/03/30 08:41:54;;;;;;;11.95;4.22;;;;;;;12.13;50.10;102038.72;5091657;28;20035;-65
2021/03/30 08:44:42;;;;;;;9.18;3.90;;;;;;;12.27;48.27;102043.91;5091919;28;20511;-65
2021/03/30 08:47:29;;;;;;;8.65;4.20;;;;;;;12.42;47.80;102040.13;5077677;28;20062;-67
2021/03/30 08:50:17;;;;;;;7.88;4.80;;;;;;;12.59;48.18;102044.22;5091794;28;20043;-67
2021/03/30 08:53:03;;;;;;;8.23;4.20;;;;;;;12.77;47.80;102041.00;5092031;28;20175;-67
2021/03/30 08:55:47;;;;;;;7.18;3.90;;;;;;;12.94;46.86;102041.47;5092317;28;20130;-66
2021/03/30 08:58:32;;;;;;;7.32;4.43;;;;;;;13.11;45.45;102040.16;5091750;28;20469;-67
2021/03/30 09:01:16;;;;;;;7.38;3.65;;;;;;;13.26;45.25;102039.00;5092568;28;20050;-67
2021/03/30 09:04:00;;;;;;;5.70;3.75;;;;;;;13.46;44.16;102035.63;5095505;28;20054;-67
2021/03/30 09:06:53;;;;;;;11.07;4.32;;;;;;;13.71;44.56;102038.06;5095952;28;20511;-66
2021/03/30 09:09:37;;;;;;;8.10;3.70;;;;;;;13.95;43.82;102038.78;5095287;28;20043;-66
2021/03/30 09:12:21;;;;;;;6.22;3.80;;;;;;;14.21;43.46;102032.19;5095103;28;20047;-66
2021/03/30 09:15:11;;;;;;;11.05;4.05;;;;;;;14.46;42.79;102032.75;5096331;28;20086;-66
2021/03/30 09:18:01;;;;;;;9.98;4.07;;;;;;;14.73;42.42;102022.41;5095421;28;20097;-67
2021/03/30 09:20:45;;;;;;;8.85;5.22;;;;;;;14.98;41.93;102013.13;5096018;28;20082;-66
2021/03/30 09:23:29;;;;;;;6.82;3.80;;;;;;;15.33;41.47;102025.28;5096138;28;20050;-67
2021/03/30 09:26:14;;;;;;;9.13;4.40;;;;;;;15.62;41.63;102012.81;5095258;28;20420;-66
2021/03/30 09:28:58;;;;;;;15.68;4.88;;;;;;;15.96;40.76;102009.69;5095464;28;20055;-66
2021/03/30 09:31:43;;;;;;;9.10;4.90;;;;;;;16.26;40.21;102009.63;5080513;28;20073;-67
2021/03/30 09:34:26;;;;;;;8.23;4.72;;;;;;;16.57;38.90;102005.06;5080540;28;20116;-67
2021/03/30 09:37:10;;;;;;;8.43;4.75;;;;;;;16.98;38.57;102019.06;5080735;28;20170;-67
2021/03/30 09:39:54;;;;;;;12.57;5.40;;;;;;;17.57;37.69;102018.81;5095985;28;20050;-67
2021/03/30 09:42:40;;;;;;;8.90;5.40;;;;;;;18.23;36.27;102015.81;5095549;28;20114;-67
2021/03/30 09:45:28;;;;;;;9.93;4.50;;;;;;;19.14;34.96;102010.97;5094910;28;20515;-66
2021/03/30 09:48:15;;;;;;;8.48;4.82;;;;;;;20.20;33.12;102004.19;5094901;28;20051;-67
2021/03/30 09:50:59;;;;;;;10.13;4.85;;;;;;;22.19;29.36;101995.88;5094534;28;20517;-67
2021/03/30 09:53:43;;;;;;;9.32;4.80;;;;;;;24.61;25.91;101986.84;5095861;28;20046;-67
2021/03/30 09:56:29;;;;;;;15.82;4.85;;;;;;;27.77;22.03;101984.00;5094536;28;20070;-67
2021/03/30 09:59:18;;;;;;;8.90;4.50;;;;;;;30.25;19.75;101973.66;5094353;28;20566;-67
2021/03/30 10:02:02;;;;;;;11.73;5.20;;;;;;;32.19;17.53;101974.94;5079997;28;20078;-67
2021/03/30 10:04:54;;;;;;;8.57;4.82;;;;;;;33.95;15.69;101969.47;5094271;28;20043;-67
2021/03/30 10:07:42;;;;;;;8.27;5.40;;;;;;;34.74;15.45;101963.25;5094177;28;20139;-67
2021/03/30 10:10:39;;;;;;;11.68;5.32;;;;;;;35.52;14.31;101966.13;5095401;28;20451;-67
2021/03/30 10:13:28;;;;;;;7.45;5.45;;;;;;;36.08;14.45;101959.75;5079108;28;20051;-67
2021/03/30 10:16:15;;;;;;;12.50;5.90;;;;;;;36.24;13.79;101954.00;5094037;28;20073;-67
2021/03/30 10:18:59;;;;;;;7.13;5.32;;;;;;;36.74;13.69;101956.06;5095338;28;20100;-67
2021/03/30 10:21:45;;;;;;;12.95;6.55;;;;;;;37.30;13.25;101947.47;5093915;28;20127;-67
2021/03/30 10:24:29;;;;;;;8.43;5.63;;;;;;;37.93;12.71;101949.59;5095261;28;20047;-68
2021/03/30 10:27:17;;;;;;;10.68;5.97;;;;;;;38.53;12.63;101952.03;5094155;28;20047;-66
2021/03/30 10:30:01;;;;;;;16.98;6.22;;;;;;;38.87;12.63;101943.75;5094073;28;20043;-66
2021/03/30 10:32:46;;;;;;;11.68;6.68;;;;;;;39.31;12.30;101947.28;5093776;28;20136;-67
2021/03/30 10:35:30;;;;;;;11.90;6.55;;;;;;;39.80;11.92;101943.91;5094937;28;20070;-67
2021/03/30 10:38:16;;;;;;;8.57;6.20;;;;;;;40.05;11.34;101939.97;5095157;28;20078;-66
2021/03/30 10:41:18;;;;;;;10.32;6.45;;;;;;;40.47;11.04;101937.16;5094566;28;20412;-68
2021/03/30 10:44:04;;;;;;;14.77;6.63;;;;;;;40.76;11.30;101923.84;5079423;28;20042;-66
2021/03/30 10:46:49;;;;;;;9.25;7.07;;;;;;;40.80;10.56;101922.94;5094150;28;20051;-67
2021/03/30 10:49:33;;;;;;;11.05;6.75;;;;;;;40.88;10.85;101927.84;5079543;28;20047;-67
2021/03/30 10:52:20;;;;;;;11.02;6.88;;;;;;;40.52;10.55;101920.34;5093646;28;20047;-67
2021/03/30 10:55:08;;;;;;;11.00;6.97;;;;;;;40.78;10.77;101922.41;5095366;28;20173;-67
2021/03/30 10:57:53;;;;;;;11.70;7.15;;;;;;;40.99;10.20;101909.78;5094939;28;20101;-67
2021/03/30 11:00:38;;;;;;;11.30;6.38;;;;;;;40.90;10.36;101908.00;5095186;28;20135;-67
2021/03/30 11:03:22;;;;;;;11.02;6.03;;;;;;;41.41;10.55;101908.75;5079762;28;20508;-67
2021/03/30 11:06:06;;;;;;;11.50;5.72;;;;;;;42.01;9.90;101901.88;5096156;28;20051;-67
2021/03/30 11:08:50;;;;;;;10.00;6.55;;;;;;;41.85;10.24;101898.56;5093318;28;20047;-66
2021/03/30 11:11:33;;;;;;;11.20;6.97;;;;;;;42.19;10.11;101898.13;5093145;28;20094;-67
2021/03/30 11:14:33;;;;;;;10.00;6.15;;;;;;;42.76;9.77;101889.72;5094193;28;20092;-67
2021/03/30 11:17:17;;;;;;;11.18;7.00;;;;;;;42.96;9.39;101886.41;5094160;28;20412;-66
2021/03/30 11:20:03;;;;;;;10.70;6.45;;;;;;;43.20;9.49;101876.47;5093053;28;20046;-66
2021/03/30 11:22:49;;;;;;;9.82;6.63;;;;;;;43.64;9.47;101881.13;5092709;28;20412;-67
2021/03/30 11:25:33;;;;;;;14.88;6.47;;;;;;;43.68;9.22;101877.38;5092782;28;20047;-66
2021/03/30 11:28:17;;;;;;;12.57;6.60;;;;;;;43.74;8.95;101878.03;5092773;28;20055;-66
2021/03/30 11:31:05;;;;;;;7.30;6.32;;;;;;;43.81;9.20;101869.97;5093636;28;20047;-67
2021/03/30 11:33:54;;;;;;;11.32;7.28;;;;;;;43.92;8.83;101860.88;5093904;28;20055;-67
2021/03/30 11:36:41;;;;;;;13.40;7.07;;;;;;;43.84;8.90;101861.69;5093825;28;20067;-67
2021/03/30 11:39:25;;;;;;;12.68;6.80;;;;;;;43.80;9.22;101857.03;5078698;28;20050;-67
2021/03/30 11:42:09;;;;;;;12.65;6.68;;;;;;;43.84;8.77;101847.63;5093440;28;20047;-67
2021/03/30 11:44:53;;;;;;;9.52;6.93;;;;;;;43.15;8.99;101851.34;5093701;28;20129;-66
2021/03/30 11:47:37;;;;;;;9.75;6.30;;;;;;;43.49;9.57;101845.03;5093544;28;20557;-67
2021/03/30 11:50:21;;;;;;;10.93;6.60;;;;;;;43.87;8.72;101840.53;5092656;28;20051;-66
2021/03/30 11:53:05;;;;;;;9.25;6.68;;;;;;;43.80;8.91;101843.00;5078568;28;20042;-65
2021/03/30 11:55:49;;;;;;;9.88;6.47;;;;;;;43.65;9.17;101837.81;5093626;28;20051;-66
2021/03/30 11:58:33;;;;;;;10.88;6.53;;;;;;;43.54;9.37;101830.88;5093601;28;20067;-66
2021/03/30 12:01:16;;;;;;;14.07;6.13;;;;;;;43.70;8.98;101823.63;5093463;28;20047;-66
2021/03/30 12:04:00;;;;;;;8.65;6.38;;;;;;;43.81;9.48;101825.00;5078246;28;20046;-66
2021/03/30 12:06:44;;;;;;;7.97;6.30;;;;;;;44.01;9.24;101824.34;5093173;28;20047;-66
2021/03/30 12:09:28;;;;;;;10.45;5.78;;;;;;;44.43;8.48;101815.13;5093527;28;20088;-65
2021/03/30 12:12:12;;;;;;;9.60;6.45;;;;;;;44.45;8.30;101807.19;5092463;28;20086;-67
2021/03/30 12:14:57;;;;;;;11.15;6.32;;;;;;;44.29;8.65;101803.19;5092426;28;20051;-67
2021/03/30 12:17:41;;;;;;;7.05;6.15;;;;;;;44.61;8.26;101805.47;5093412;28;20093;-67
2021/03/30 12:20:24;;;;;;;10.05;6.18;;;;;;;43.11;8.80;101794.19;5092413;28;20098;-66
2021/03/30 12:23:08;;;;;;;9.23;5.93;;;;;;;42.97;9.49;101792.63;5092258;28;20109;-66
2021/03/30 12:25:53;;;;;;;10.38;5.68;;;;;;;43.60;9.23;101791.03;5092004;28;20054;-66
2021/03/30 12:28:37;;;;;;;7.82;5.18;;;;;;;44.02;9.37;101781.84;5093278;28;20043;-67
2021/03/30 12:31:21;;;;;;;9.48;6.07;;;;;;;43.95;9.09;101775.06;5092111;28;20051;-67
2021/03/30 12:34:05;;;;;;;10.63;5.95;;;;;;;44.04;9.18;101773.09;5092188;28;20451;-66
2021/03/30 12:36:49;;;;;;;8.45;5.35;;;;;;;44.17;9.15;101772.13;5094811;28;20066;-67
2021/03/30 12:39:33;;;;;;;11.02;5.95;;;;;;;44.25;8.33;101762.84;5097096;28;20082;-66
2021/03/30 12:42:17;;;;;;;8.02;5.60;;;;;;;43.62;9.03;101765.44;5096767;28;20058;-66
2021/03/30 12:45:01;;;;;;;11.05;5.45;;;;;;;43.09;8.99;101750.78;5095775;28;20051;-67
2021/03/30 12:47:45;;;;;;;8.50;4.60;;;;;;;43.00;9.47;101755.53;5097086;28;20141;-66
2021/03/30 12:50:30;;;;;;;8.57;4.93;;;;;;;43.14;9.36;101750.59;5095856;28;20104;-66
2021/03/30 12:53:14;;;;;;;12.23;4.85;;;;;;;43.45;9.44;101754.19;5095657;28;20043;-66
2021/03/30 12:55:58;;;;;;;11.18;5.38;;;;;;;43.51;9.09;101750.06;5095928;28;20093;-66
2021/03/30 12:58:42;;;;;;;5.50;4.40;;;;;;;43.18;8.64;101744.03;5095842;28;20043;-66
2021/03/30 13:01:26;;;;;;;7.88;5.25;;;;;;;42.82;8.92;101729.31;5095520;28;20413;-65
2021/03/30 13:04:10;;;;;;;4.70;3.80;;;;;;;42.74;9.65;101729.28;5095385;28;20081;-66